Time;durP1;ratioP1;P1;durP2;ratioP2;P2;SDS_P1;SDS_P2;PMS_P1;PMS_P2;Temp;Humidity;BMP_temperature;BMP_pressure;BME280_temperature;BME280_humidity;BME280_pressure;Samples;Min_cycle;Max_cycle;Signal;HPM_P1;HPM_P2
2021/09/27 00:01:50;;;;;;;8.07;7.28;;;19.90;77.90;;;;;;10496977;28;20055;-63
2021/09/27 00:06:51;;;;;;;8.90;7.93;;;19.90;77.90;;;;;;10497485;28;20070;-63
2021/09/27 00:11:52;;;;;;;9.20;7.82;;;19.90;78.00;;;;;;10498454;28;20034;-63
2021/09/27 00:16:52;;;;;;;8.75;7.85;;;19.90;78.00;;;;;;10497858;28;20113;-64
2021/09/27 00:21:54;;;;;;;9.73;7.63;;;19.90;77.90;;;;;;10500421;28;20075;-64
2021/09/27 00:26:55;;;;;;;8.13;7.30;;;19.90;77.90;;;;;;10479771;28;20078;-64
2021/09/27 00:31:55;;;;;;;7.80;7.00;;;19.90;78.00;;;;;;10496045;28;20488;-63
2021/09/27 00:36:56;;;;;;;7.97;7.05;;;19.90;78.60;;;;;;10479440;28;20029;-63
2021/09/27 00:41:57;;;;;;;10.13;7.75;;;19.90;78.00;;;;;;10497141;28;20131;-63
2021/09/27 00:46:57;;;;;;;8.63;7.72;;;19.90;78.00;;;;;;10495788;28;20442;-63
2021/09/27 00:51:58;;;;;;;8.73;7.93;;;19.90;77.80;;;;;;10495674;28;20401;-64
2021/09/27 00:57:12;;;;;;;8.65;7.75;;;19.90;77.70;;;;;;10495432;28;20063;-63
2021/09/27 01:02:13;;;;;;;8.85;7.95;;;19.90;77.80;;;;;;10494975;28;20052;-63
2021/09/27 01:07:45;;;;;;;8.95;8.10;;;19.90;77.70;;;;;;10478840;28;20040;-64
2021/09/27 01:13:21;;;;;;;8.32;7.43;;;19.90;77.70;;;;;;10495370;28;20118;-63
2021/09/27 01:18:48;;;;;;;8.77;7.97;;;19.90;77.70;;;;;;10496081;28;20426;-64
2021/09/27 01:24:36;;;;;;;10.05;8.02;;;19.90;77.70;;;;;;10483865;28;20033;-64
2021/09/27 01:30:27;;;;;;;9.00;8.13;;;19.90;77.70;;;;;;10494977;28;20055;-64
2021/09/27 01:35:55;;;;;;;8.20;7.40;;;19.90;77.80;;;;;;10359673;28;20065;-64
2021/09/27 01:41:42;;;;;;;8.23;7.43;;;19.90;77.70;;;;;;10478669;28;20048;-64
2021/09/27 01:47:00;;;;;;;8.23;7.47;;;19.80;77.50;;;;;;10497309;28;20530;-64
2021/09/27 01:52:19;;;;;;;7.90;7.10;;;19.90;77.60;;;;;;10503963;28;20035;-64
2021/09/27 01:57:44;;;;;;;8.23;7.43;;;19.80;77.60;;;;;;10486265;28;20393;-63
2021/09/27 02:03:16;;;;;;;8.43;7.63;;;19.80;77.60;;;;;;10502158;28;20028;-64
2021/09/27 02:08:47;;;;;;;7.40;6.80;;;19.80;77.60;;;;;;10503128;28;20032;-64
2021/09/27 02:14:16;;;;;;;8.35;7.28;;;19.80;77.60;;;;;;10501994;28;20043;-63
2021/09/27 02:19:55;;;;;;;9.03;8.13;;;19.80;77.60;;;;;;10506269;28;20025;-63
2021/09/27 02:25:06;;;;;;;9.07;7.83;;;19.80;77.60;;;;;;10503976;28;20029;-64
2021/09/27 02:30:12;;;;;;;7.60;6.88;;;19.80;77.50;;;;;;10501425;28;20377;-64
2021/09/27 02:35:47;;;;;;;8.30;7.35;;;19.80;77.30;;;;;;10501431;28;20033;-64
2021/09/27 02:41:11;;;;;;;8.80;7.95;;;19.80;77.40;;;;;;10466360;28;20037;-65
2021/09/27 02:46:14;;;;;;;9.07;7.38;;;19.80;77.50;;;;;;10485250;28;20036;-64
2021/09/27 02:51:14;;;;;;;9.18;8.23;;;19.80;77.50;;;;;;10501053;28;20029;-64
2021/09/27 02:56:43;;;;;;;8.77;7.70;;;19.80;77.40;;;;;;10500433;28;20396;-64
2021/09/27 03:02:22;;;;;;;9.23;7.70;;;19.80;77.30;;;;;;10469426;28;20048;-64
2021/09/27 03:08:03;;;;;;;9.63;7.43;;;19.80;77.20;;;;;;10501338;28;20111;-65
2021/09/27 03:13:26;;;;;;;8.63;7.80;;;19.70;77.00;;;;;;10484098;28;20037;-65
2021/09/27 03:18:45;;;;;;;7.97;7.18;;;19.70;77.10;;;;;;10502031;28;20540;-64
2021/09/27 03:24:29;;;;;;;10.52;7.80;;;19.70;77.10;;;;;;10486431;28;20488;-64
2021/09/27 03:30:00;;;;;;;9.20;7.18;;;19.70;77.10;;;;;;10499091;28;20059;-64
2021/09/27 03:35:10;;;;;;;8.10;7.18;;;19.80;77.20;;;;;;10499803;28;20036;-64
2021/09/27 03:40:17;;;;;;;8.43;7.57;;;19.70;77.10;;;;;;10498899;28;20028;-65
2021/09/27 03:45:28;;;;;;;9.18;7.50;;;19.70;77.00;;;;;;10499885;28;20085;-64
2021/09/27 03:50:47;;;;;;;9.30;7.90;;;19.70;77.10;;;;;;10498571;28;20032;-65
2021/09/27 03:55:55;;;;;;;8.47;7.67;;;19.70;77.10;;;;;;10499396;28;20439;-65
2021/09/27 04:01:13;;;;;;;8.63;7.73;;;19.70;77.00;;;;;;10481387;28;20041;-65
2021/09/27 04:07:11;;;;;;;8.88;7.78;;;19.70;76.90;;;;;;10497759;28;20503;-65
2021/09/27 04:12:53;;;;;;;7.20;6.50;;;19.70;76.90;;;;;;10498605;28;20107;-65
2021/09/27 04:18:14;;;;;;;8.10;7.25;;;19.70;76.90;;;;;;10490549;28;20099;-65
2021/09/27 04:23:35;;;;;;;8.80;7.82;;;19.70;76.80;;;;;;10500540;28;20435;-65
2021/09/27 04:29:20;;;;;;;8.20;7.43;;;19.70;76.80;;;;;;10496765;28;20123;-65
2021/09/27 04:34:33;;;;;;;8.73;7.82;;;19.70;76.80;;;;;;10484416;28;20036;-65
2021/09/27 04:39:39;;;;;;;9.43;7.75;;;19.70;76.80;;;;;;10496467;28;20040;-65
2021/09/27 04:45:15;;;;;;;7.65;6.95;;;19.70;76.90;;;;;;10495922;28;20068;-65
2021/09/27 04:50:47;;;;;;;12.23;11.13;;;19.70;77.00;;;;;;10495610;28;20031;-63
2021/09/27 04:56:10;;;;;;;11.60;8.25;;;19.70;77.30;;;;;;10495810;28;20476;-63
2021/09/27 05:01:47;;;;;;;14.65;8.45;;;19.90;77.50;;;;;;10496673;28;20032;-64
2021/09/27 05:07:47;;;;;;;10.60;7.95;;;20.00;77.50;;;;;;10496437;28;20034;-63
2021/09/27 05:13:49;;;;;;;13.38;9.63;;;20.00;77.80;;;;;;10402390;28;20036;-62
2021/09/27 05:19:19;;;;;;;11.45;9.07;;;20.20;77.60;;;;;;10482308;28;20040;-63
2021/09/27 05:24:23;;;;;;;;;;;20.20;77.70;;;;;;10481654;28;20135;-64
2021/09/27 05:29:46;;;;;;;21.63;9.70;;;20.20;77.30;;;;;;10494527;28;19986;-66
2021/09/27 05:35:15;;;;;;;17.60;9.90;;;20.30;77.60;;;;;;10503801;28;20035;-64
2021/09/27 05:40:49;;;;;;;19.48;10.90;;;20.20;77.70;;;;;;10493439;28;20083;-65
2021/09/27 05:46:38;;;;;;;40.80;12.32;;;20.30;77.60;;;;;;10502432;28;20056;-64
2021/09/27 05:52:12;;;;;;;42.00;12.20;;;20.30;77.80;;;;;;10500885;28;20059;-62
2021/09/27 05:57:56;;;;;;;19.95;10.15;;;20.30;77.60;;;;;;10499505;28;20028;-59
2021/09/27 06:03:33;;;;;;;43.38;13.18;;;20.20;77.40;;;;;;10403625;28;20073;-64
2021/09/27 06:09:03;;;;;;;25.65;11.20;;;20.20;78.10;;;;;;10478659;28;20029;-67
2021/09/27 06:14:06;;;;;;;33.05;11.38;;;20.20;77.80;;;;;;10500143;28;20100;-64
2021/09/27 06:19:43;;;;;;;26.17;10.95;;;20.20;77.80;;;;;;10506289;28;20046;-66
2021/09/27 06:25:49;;;;;;;23.63;10.85;;;20.10;77.90;;;;;;10487264;28;20106;-66
2021/09/27 06:31:20;;;;;;;19.85;9.77;;;20.00;78.20;;;;;;10490501;28;20052;-65
2021/09/27 06:36:25;;;;;;;19.48;10.10;;;20.00;78.10;;;;;;10485359;28;20436;-66
2021/09/27 06:41:30;;;;;;;21.80;9.77;;;19.90;78.20;;;;;;10481480;28;20029;-66
2021/09/27 06:46:31;;;;;;;21.38;10.20;;;19.90;78.00;;;;;;10497636;28;20031;-65
2021/09/27 06:51:32;;;;;;;17.70;10.10;;;19.90;77.90;;;;;;10498951;28;20472;-66
2021/09/27 06:56:33;;;;;;;17.20;9.85;;;19.90;77.90;;;;;;10495028;28;20028;-66
2021/09/27 07:01:34;;;;;;;21.67;10.50;;;19.90;77.70;;;;;;10495952;28;20032;-66
2021/09/27 07:06:35;;;;;;;13.00;9.35;;;19.90;77.80;;;;;;10501227;28;20028;-66
2021/09/27 07:11:39;;;;;;;13.25;8.50;;;19.80;77.60;;;;;;10499770;28;20400;-66
2021/09/27 07:16:39;;;;;;;17.75;9.75;;;19.90;78.00;;;;;;10499740;28;20056;-65
2021/09/27 07:21:42;;;;;;;15.82;8.77;;;19.90;77.70;;;;;;10472359;28;20032;-66
2021/09/27 07:26:43;;;;;;;16.50;9.00;;;19.80;77.60;;;;;;10499059;28;20469;-66
2021/09/27 07:31:44;;;;;;;19.10;9.13;;;19.90;77.80;;;;;;10498853;28;20048;-68
2021/09/27 07:36:45;;;;;;;13.73;8.68;;;19.80;77.60;;;;;;10499038;28;20082;-67
2021/09/27 07:41:46;;;;;;;13.45;8.32;;;19.90;77.80;;;;;;10499926;28;20060;-66
2021/09/27 07:46:47;;;;;;;13.07;9.57;;;19.90;77.60;;;;;;10514024;28;20060;-66
2021/09/27 07:51:48;;;;;;;28.17;10.73;;;19.80;77.60;;;;;;10496724;28;20033;-69
2021/09/27 07:56:49;;;;;;;20.40;10.13;;;19.90;78.00;;;;;;10490484;28;20031;-67
2021/09/27 08:01:50;;;;;;;21.35;10.00;;;20.00;78.20;;;;;;10503295;28;20027;-67
2021/09/27 08:06:50;;;;;;;18.30;9.93;;;20.00;78.00;;;;;;10497903;28;20537;-65
2021/09/27 08:11:51;;;;;;;13.73;9.70;;;20.00;77.70;;;;;;10496964;28;20021;-65
2021/09/27 08:16:52;;;;;;;21.80;10.25;;;20.00;77.70;;;;;;10497913;28;20051;-67
2021/09/27 08:21:54;;;;;;;17.15;9.48;;;20.10;77.60;;;;;;10499727;28;20033;-65
2021/09/27 08:26:54;;;;;;;14.93;10.25;;;20.00;77.60;;;;;;10496772;28;20039;-66
2021/09/27 08:31:55;;;;;;;17.90;10.90;;;20.00;77.80;;;;;;10497002;28;20079;-66
2021/09/27 08:36:56;;;;;;;15.35;10.27;;;20.00;77.90;;;;;;10497174;28;20113;-66
2021/09/27 08:42:13;;;;;;;16.02;10.80;;;20.10;77.80;;;;;;10494994;28;20029;-66
2021/09/27 08:47:44;;;;;;;17.15;10.60;;;20.10;77.90;;;;;;10492819;28;20044;-66
2021/09/27 08:52:45;;;;;;;17.92;11.00;;;20.10;78.00;;;;;;10494884;28;20031;-66
2021/09/27 08:58:35;;;;;;;14.52;11.20;;;20.10;77.80;;;;;;10495154;28;20027;-65
2021/09/27 09:04:01;;;;;;;14.07;11.50;;;20.10;77.80;;;;;;10493725;28;20035;-62
2021/09/27 09:09:06;;;;;;;20.42;11.40;;;20.10;77.80;;;;;;10495691;28;20032;-65
2021/09/27 09:14:42;;;;;;;19.13;10.52;;;20.10;77.80;;;;;;10495138;28;20556;-64
2021/09/27 09:19:43;;;;;;;19.45;10.75;;;20.10;77.80;;;;;;10498971;28;20542;-63
2021/09/27 09:24:44;;;;;;;17.42;10.63;;;20.10;77.80;;;;;;10477937;28;20028;-64
2021/09/27 09:29:46;;;;;;;18.58;9.25;;;20.20;77.80;;;;;;10494902;28;20469;-64
2021/09/27 09:34:50;;;;;;;17.40;9.95;;;20.20;77.90;;;;;;10496526;28;20051;-65
2021/09/27 09:40:16;;;;;;;20.17;9.65;;;20.10;77.80;;;;;;10496290;28;20040;-65
2021/09/27 09:45:23;;;;;;;19.95;10.48;;;20.20;77.90;;;;;;10495338;28;20030;-64
2021/09/27 09:50:23;;;;;;;20.38;11.23;;;20.20;77.70;;;;;;10494738;28;20059;-65
2021/09/27 09:55:51;;;;;;;16.23;9.95;;;20.20;78.00;;;;;;10496440;28;20502;-64
2021/09/27 10:00:51;;;;;;;17.38;9.13;;;20.20;77.90;;;;;;10481246;28;20028;-64
2021/09/27 10:06:01;;;;;;;19.30;10.68;;;20.30;77.90;;;;;;10494517;28;20021;-65
2021/09/27 10:11:14;;;;;;;13.05;9.48;;;20.30;77.90;;;;;;10501374;28;20039;-63
2021/09/27 10:16:40;;;;;;;18.17;9.50;;;20.30;77.90;;;;;;10499706;28;20103;-64
2021/09/27 10:21:50;;;;;;;15.85;10.02;;;20.30;77.90;;;;;;10503179;28;20036;-61
2021/09/27 10:26:53;;;;;;;19.67;10.65;;;20.20;77.80;;;;;;10501273;28;20048;-62
2021/09/27 10:32:10;;;;;;;24.45;11.65;;;20.20;77.80;;;;;;10500639;28;20064;-62
2021/09/27 10:37:19;;;;;;;18.40;10.02;;;20.20;77.80;;;;;;10499964;28;20098;-61
2021/09/27 10:42:47;;;;;;;18.52;9.75;;;20.20;77.90;;;;;;10501135;28;20032;-62
2021/09/27 10:47:54;;;;;;;25.05;10.77;;;20.20;78.00;;;;;;10500912;28;20037;-62
2021/09/27 10:53:30;;;;;;;17.27;10.68;;;20.20;78.00;;;;;;10501038;28;20489;-63
2021/09/27 10:58:47;;;;;;;17.55;9.90;;;20.30;78.00;;;;;;10473724;28;20044;-62
2021/09/27 11:03:53;;;;;;;19.67;10.07;;;20.30;78.20;;;;;;10500423;28;20024;-60
2021/09/27 11:09:02;;;;;;;15.77;10.00;;;20.30;78.30;;;;;;10500408;28;20024;-62
2021/09/27 11:14:28;;;;;;;14.48;9.57;;;20.30;78.20;;;;;;10501549;28;20473;-62
2021/09/27 11:19:32;;;;;;;16.77;9.60;;;20.30;78.10;;;;;;10501280;28;20068;-61
2021/09/27 11:24:42;;;;;;;18.10;9.15;;;20.30;78.20;;;;;;10499302;28;20028;-61
2021/09/27 11:29:57;;;;;;;14.20;9.00;;;20.30;78.20;;;;;;10500290;28;20049;-61
2021/09/27 11:35:32;;;;;;;15.65;9.02;;;20.30;78.00;;;;;;10498998;28;20040;-61
2021/09/27 11:40:40;;;;;;;13.00;9.27;;;20.40;78.10;;;;;;10500375;28;20485;-61
2021/09/27 11:45:52;;;;;;;14.77;8.30;;;20.30;77.90;;;;;;10497802;28;20072;-61
2021/09/27 11:51:08;;;;;;;11.85;8.48;;;20.30;77.50;;;;;;10496931;28;20358;-61
2021/09/27 11:56:59;;;;;;;10.55;8.52;;;20.30;78.10;;;;;;10497222;28;20056;-62
2021/09/27 12:02:29;;;;;;;10.23;8.63;;;20.20;78.00;;;;;;10491728;28;20040;-61
2021/09/27 12:07:39;;;;;;;12.23;8.20;;;20.30;78.10;;;;;;10495096;28;20052;-61
2021/09/27 12:13:18;;;;;;;12.07;8.20;;;20.20;77.90;;;;;;10496273;28;20388;-61
2021/09/27 12:18:35;;;;;;;11.80;8.27;;;20.20;77.90;;;;;;10497390;28;20048;-61
2021/09/27 12:23:49;;;;;;;9.10;7.30;;;20.20;77.80;;;;;;10498472;28;20459;-61
2021/09/27 12:29:04;;;;;;;11.98;8.35;;;20.20;77.80;;;;;;10497181;28;20055;-61
2021/09/27 12:34:18;;;;;;;10.95;8.27;;;20.20;77.80;;;;;;10496366;28;20094;-62
2021/09/27 12:39:23;;;;;;;8.27;7.47;;;20.20;77.60;;;;;;10496296;28;20412;-62
2021/09/27 12:44:31;;;;;;;10.32;7.25;;;20.20;77.60;;;;;;10497454;28;20071;-61
2021/09/27 12:49:49;;;;;;;9.02;7.35;;;20.20;77.40;;;;;;10497470;28;20067;-62
2021/09/27 12:54:53;;;;;;;7.75;6.95;;;20.20;77.30;;;;;;10497372;28;20028;-62
2021/09/27 12:59:56;;;;;;;9.43;7.30;;;20.20;77.40;;;;;;10495818;28;20421;-61
2021/09/27 13:05:21;;;;;;;8.52;7.63;;;20.20;77.30;;;;;;10496889;28;20067;-62
2021/09/27 13:10:47;;;;;;;8.82;7.53;;;20.20;77.40;;;;;;10497078;28;20040;-61
2021/09/27 13:16:25;;;;;;;7.20;6.50;;;20.20;77.30;;;;;;10496602;28;20079;-61
2021/09/27 13:21:46;;;;;;;7.40;6.45;;;20.20;77.40;;;;;;10499672;28;20036;-62
2021/09/27 13:27:13;;;;;;;8.98;7.07;;;20.20;77.40;;;;;;10494979;28;20063;-61
2021/09/27 13:32:24;;;;;;;7.72;6.57;;;20.20;77.20;;;;;;10472653;28;20127;-62
2021/09/27 13:37:47;;;;;;;9.50;6.90;;;20.20;77.30;;;;;;10496432;28;20070;-63
2021/09/27 13:43:02;;;;;;;8.48;6.97;;;20.10;77.20;;;;;;10497419;28;20358;-62
2021/09/27 13:48:08;;;;;;;13.20;7.25;;;20.10;77.20;;;;;;10504347;28;20033;-62
2021/09/27 13:53:29;;;;;;;14.98;7.18;;;20.30;77.30;;;;;;10503127;28;20028;-65
2021/09/27 13:58:30;;;;;;;15.07;6.95;;;20.40;77.30;;;;;;10503933;28;20040;-63
2021/09/27 14:03:30;;;;;;;21.85;7.75;;;20.40;77.20;;;;;;10503937;28;20039;-64
2021/09/27 14:08:31;;;;;;;18.08;8.48;;;20.30;77.20;;;;;;10501870;28;20035;-63
2021/09/27 14:13:33;;;;;;;30.38;7.47;;;20.30;77.70;;;;;;10501216;28;20108;-62
2021/09/27 14:18:35;;;;;;;18.75;7.32;;;20.20;77.40;;;;;;10502862;28;20092;-60
2021/09/27 14:23:36;;;;;;;29.52;8.00;;;20.30;77.20;;;;;;10502468;28;20385;-61
2021/09/27 14:28:37;;;;;;;36.28;7.80;;;20.20;77.50;;;;;;10502267;28;20033;-61
2021/09/27 14:33:39;;;;;;;23.42;7.60;;;20.20;77.30;;;;;;10500794;28;20086;-61
2021/09/27 14:38:42;;;;;;;20.95;7.35;;;20.20;77.50;;;;;;10502108;28;20016;-61
2021/09/27 14:43:46;;;;;;;65.47;9.65;;;20.20;77.40;;;;;;10500742;28;20538;-61
2021/09/27 14:48:48;;;;;;;26.75;7.97;;;20.20;77.80;;;;;;10502112;28;20461;-60
2021/09/27 14:53:49;;;;;;;34.13;6.85;;;20.20;77.80;;;;;;10502071;28;20032;-64
2021/09/27 14:58:50;;;;;;;38.70;8.50;;;20.20;77.80;;;;;;10487368;28;20488;-67
2021/09/27 15:03:52;;;;;;;30.50;7.32;;;20.20;77.90;;;;;;10500628;28;20112;-71
2021/09/27 15:08:52;;;;;;;43.03;7.38;;;20.20;78.10;;;;;;10499785;28;20025;-60
2021/09/27 15:13:56;;;;;;;39.03;7.95;;;20.20;77.80;;;;;;10501283;28;20068;-59
2021/09/27 15:18:57;;;;;;;31.45;8.18;;;20.20;78.30;;;;;;10501130;28;20063;-59
2021/09/27 15:23:58;;;;;;;26.63;7.18;;;20.20;77.80;;;;;;10500970;28;20110;-59
2021/09/27 15:29:09;;;;;;;38.63;9.18;;;20.20;78.00;;;;;;10496978;28;20118;-58
2021/09/27 15:34:15;;;;;;;29.00;6.85;;;20.20;78.20;;;;;;10491797;28;20033;-58
2021/09/27 15:39:18;;;;;;;23.92;7.00;;;20.20;77.60;;;;;;10498092;28;20119;-58
2021/09/27 15:44:24;;;;;;;13.77;6.18;;;20.20;77.90;;;;;;10498811;28;20090;-58
2021/09/27 15:49:25;;;;;;;15.65;5.70;;;20.20;78.30;;;;;;10496778;28;20047;-58
2021/09/27 15:54:28;;;;;;;24.55;5.85;;;20.20;78.90;;;;;;10497412;28;20024;-57
2021/09/27 15:59:29;;;;;;;12.60;4.68;;;20.20;77.60;;;;;;10497267;28;20043;-58
2021/09/27 16:04:34;;;;;;;14.93;4.75;;;20.30;78.90;;;;;;10496241;28;20060;-57
2021/09/27 16:09:37;;;;;;;12.98;4.38;;;20.60;79.70;;;;;;10498872;28;20028;-58
2021/09/27 16:14:38;;;;;;;20.02;4.95;;;20.70;79.30;;;;;;10497967;28;20028;-58
2021/09/27 16:19:39;;;;;;;18.55;5.13;;;20.70;78.70;;;;;;10498844;28;20055;-58
2021/09/27 16:24:40;;;;;;;14.68;4.72;;;20.70;78.70;;;;;;10497141;28;20115;-60
2021/09/27 16:29:41;;;;;;;16.75;5.45;;;20.70;79.10;;;;;;10498065;28;20048;-59
2021/09/27 16:34:42;;;;;;;22.85;5.25;;;20.60;78.60;;;;;;10498054;28;20107;-57
2021/09/27 16:39:43;;;;;;;19.02;5.15;;;20.60;78.70;;;;;;10497612;28;20047;-58
2021/09/27 16:44:43;;;;;;;14.48;4.78;;;20.50;78.80;;;;;;10497648;28;20384;-58
2021/09/27 16:49:48;;;;;;;16.27;4.75;;;20.50;78.80;;;;;;10497359;28;20064;-58
2021/09/27 16:54:51;;;;;;;14.25;4.50;;;20.40;79.10;;;;;;10497050;28;20032;-57
2021/09/27 16:59:52;;;;;;;11.48;4.43;;;20.30;79.00;;;;;;10495110;28;20116;-57
2021/09/27 17:04:53;;;;;;;6.35;3.38;;;20.30;79.00;;;;;;10494867;28;20112;-58
2021/09/27 17:09:54;;;;;;;9.15;3.78;;;20.30;79.10;;;;;;10496200;28;20021;-57
2021/09/27 17:19:56;;;;;;;12.95;3.92;;;20.40;78.60;;;;;;10497799;28;20040;-55
2021/09/27 17:24:57;;;;;;;12.63;3.70;;;20.30;78.60;;;;;;10495287;28;20500;-55
2021/09/27 17:29:58;;;;;;;7.68;3.55;;;20.40;78.50;;;;;;10493630;28;20485;-55
2021/09/27 17:35:00;;;;;;;7.40;3.33;;;20.30;78.40;;;;;;10491762;28;20041;-56
2021/09/27 17:40:01;;;;;;;8.95;3.38;;;20.30;78.70;;;;;;10495297;28;20103;-55
2021/09/27 17:45:03;;;;;;;7.95;3.33;;;20.30;78.60;;;;;;10490783;28;20032;-56
2021/09/27 17:50:09;;;;;;;10.07;3.35;;;20.20;78.50;;;;;;10495887;28;20020;-56
2021/09/27 17:55:12;;;;;;;8.30;3.10;;;20.20;78.50;;;;;;10493251;28;20384;-56
2021/09/27 18:00:13;;;;;;;7.85;2.90;;;20.20;78.20;;;;;;10491968;28;20060;-55
2021/09/27 18:05:15;;;;;;;7.75;3.25;;;20.20;77.80;;;;;;10494377;28;20020;-56
2021/09/27 18:10:17;;;;;;;12.18;4.07;;;20.20;77.80;;;;;;10494131;28;20481;-56
2021/09/27 18:15:22;;;;;;;9.65;3.72;;;20.20;77.80;;;;;;10493417;28;20028;-56
2021/09/27 18:20:28;;;;;;;6.68;3.00;;;20.20;77.70;;;;;;10495606;28;20393;-56
2021/09/27 18:25:30;;;;;;;8.13;2.72;;;20.20;77.60;;;;;;10481985;28;20108;-56
2021/09/27 18:30:33;;;;;;;7.40;2.90;;;20.20;77.60;;;;;;10496503;28;20463;-56
2021/09/27 18:35:35;;;;;;;5.82;2.78;;;20.20;77.50;;;;;;10500866;28;20087;-56
2021/09/27 18:40:37;;;;;;;9.45;3.00;;;20.10;77.30;;;;;;10515016;28;20468;-56
2021/09/27 18:45:38;;;;;;;10.13;2.80;;;20.10;77.20;;;;;;10499448;28;20031;-57
2021/09/27 18:50:45;;;;;;;8.68;3.03;;;20.20;77.20;;;;;;10500308;28;20043;-57
2021/09/27 18:55:46;;;;;;;8.13;3.00;;;20.20;77.60;;;;;;10497868;28;20033;-56
2021/09/27 19:00:47;;;;;;;10.07;3.25;;;20.20;77.70;;;;;;10493488;28;20033;-56
2021/09/27 19:05:48;;;;;;;9.32;2.72;;;20.10;77.70;;;;;;10498397;28;20025;-56
2021/09/27 19:10:50;;;;;;;6.40;2.35;;;20.10;77.80;;;;;;10499260;28;20032;-57
2021/09/27 19:15:55;;;;;;;10.60;2.72;;;20.10;77.80;;;;;;10499766;28;20037;-56
2021/09/27 19:21:00;;;;;;;5.35;2.20;;;20.10;77.80;;;;;;10500843;28;20480;-58
2021/09/27 19:26:01;;;;;;;4.82;2.53;;;20.10;77.70;;;;;;10495882;28;20033;-56
2021/09/27 19:31:07;;;;;;;5.85;2.67;;;20.10;77.60;;;;;;10497675;28;20170;-55
2021/09/27 19:36:08;;;;;;;5.85;2.58;;;20.10;77.80;;;;;;10498220;28;20033;-57
2021/09/27 19:41:10;;;;;;;4.97;2.00;;;20.00;77.90;;;;;;10498126;28;20119;-57
2021/09/27 19:46:10;;;;;;;4.68;2.35;;;20.00;78.00;;;;;;10499609;28;20056;-57
2021/09/27 19:51:13;;;;;;;8.07;2.33;;;20.00;78.00;;;;;;10498693;28;20066;-57
2021/09/27 19:56:14;;;;;;;6.03;1.85;;;19.90;77.70;;;;;;10496348;28;20392;-56
2021/09/27 20:01:15;;;;;;;5.30;2.15;;;19.90;77.70;;;;;;10493742;28;20112;-56
2021/09/27 20:06:15;;;;;;;5.55;2.30;;;19.90;77.50;;;;;;10498600;28;20048;-57
2021/09/27 20:11:16;;;;;;;5.45;2.15;;;19.90;77.50;;;;;;10498502;28;20510;-56
2021/09/27 20:16:17;;;;;;;5.28;1.95;;;19.90;77.30;;;;;;10496960;28;20068;-57
2021/09/27 20:21:17;;;;;;;5.50;2.55;;;19.90;77.30;;;;;;10500283;28;20028;-57
2021/09/27 20:26:18;;;;;;;5.82;2.15;;;19.80;77.30;;;;;;10496829;28;20111;-57
2021/09/27 20:31:20;;;;;;;4.47;1.88;;;19.80;77.20;;;;;;10497589;28;20056;-57
2021/09/27 20:36:21;;;;;;;7.20;2.03;;;19.80;77.20;;;;;;10497101;28;20082;-57
2021/09/27 20:41:22;;;;;;;3.10;1.52;;;19.80;77.20;;;;;;10497090;28;20082;-56
2021/09/27 20:46:22;;;;;;;2.75;1.40;;;19.80;77.20;;;;;;10496998;28;20033;-57
2021/09/27 20:51:23;;;;;;;5.78;1.60;;;19.80;77.00;;;;;;10496565;28;20107;-57
2021/09/27 20:56:24;;;;;;;5.05;1.75;;;19.80;76.90;;;;;;10492678;28;20055;-57
2021/09/27 21:01:25;;;;;;;3.95;1.92;;;19.80;77.00;;;;;;10487460;28;20569;-57
2021/09/27 21:06:26;;;;;;;7.72;2.10;;;19.70;76.80;;;;;;10496312;28;20029;-57
2021/09/27 21:11:27;;;;;;;5.15;1.98;;;19.70;76.80;;;;;;10496532;28;20036;-57
2021/09/27 21:16:28;;;;;;;2.47;1.65;;;19.70;76.70;;;;;;10495219;28;20468;-57
2021/09/27 21:21:29;;;;;;;2.10;1.30;;;19.70;76.70;;;;;;10496521;28;20085;-57
2021/09/27 21:26:30;;;;;;;3.63;1.95;;;19.70;76.70;;;;;;10496241;28;20151;-57
2021/09/27 21:31:31;;;;;;;2.95;1.77;;;19.70;76.60;;;;;;10495613;28;20131;-57
2021/09/27 21:36:32;;;;;;;3.92;1.70;;;19.70;76.50;;;;;;10496136;28;20056;-57
2021/09/27 21:41:33;;;;;;;3.65;1.65;;;19.70;76.40;;;;;;10495745;28;20032;-57
2021/09/27 21:46:34;;;;;;;3.47;1.80;;;19.70;76.50;;;;;;10494512;28;20127;-56
2021/09/27 21:51:34;;;;;;;3.72;1.77;;;19.70;76.50;;;;;;10494610;28;20484;-57
2021/09/27 21:56:35;;;;;;;3.13;1.42;;;19.70;76.50;;;;;;10495522;28;20111;-57
2021/09/27 22:02:05;;;;;;;4.40;1.70;;;19.70;76.60;;;;;;10495862;28;20380;-57
2021/09/27 22:07:06;;;;;;;5.43;1.75;;;19.60;76.40;;;;;;10447980;28;20132;-57
2021/09/27 22:12:07;;;;;;;2.78;1.52;;;19.60;76.40;;;;;;10502027;28;20116;-57
2021/09/27 22:17:08;;;;;;;3.60;1.73;;;19.60;76.30;;;;;;10502656;28;20111;-56
2021/09/27 22:22:08;;;;;;;4.82;1.63;;;19.60;76.30;;;;;;10505168;28;20116;-57
2021/09/27 22:27:09;;;;;;;2.42;1.60;;;19.60;76.30;;;;;;10502334;28;20157;-56
2021/09/27 22:32:10;;;;;;;2.75;1.17;;;19.60;76.20;;;;;;10502119;28;20102;-57
2021/09/27 22:37:11;;;;;;;2.53;1.20;;;19.60;76.10;;;;;;10502570;28;20111;-57
2021/09/27 22:42:13;;;;;;;2.30;1.35;;;19.60;76.10;;;;;;10501972;28;20141;-57
2021/09/27 22:47:13;;;;;;;4.38;1.55;;;19.60;76.10;;;;;;10501739;28;20029;-57
2021/09/27 22:52:14;;;;;;;3.72;1.42;;;19.60;76.20;;;;;;10502145;28;20546;-57
2021/09/27 22:57:15;;;;;;;3.10;1.35;;;19.50;76.00;;;;;;10502149;28;20505;-57
2021/09/27 23:02:15;;;;;;;5.07;1.50;;;19.50;75.90;;;;;;10501932;28;20071;-57
2021/09/27 23:07:17;;;;;;;4.68;1.48;;;19.50;75.90;;;;;;10501997;28;20027;-57
2021/09/27 23:12:18;;;;;;;5.38;1.35;;;19.60;75.80;;;;;;10500380;28;20107;-56
2021/09/27 23:17:18;;;;;;;4.20;1.60;;;19.50;75.70;;;;;;10501541;28;20042;-57
2021/09/27 23:22:19;;;;;;;2.10;1.38;;;19.50;75.90;;;;;;10504040;28;20056;-57
2021/09/27 23:27:20;;;;;;;3.13;1.60;;;19.50;75.80;;;;;;10499585;28;20029;-57
2021/09/27 23:32:21;;;;;;;2.15;1.30;;;19.50;75.90;;;;;;10494826;28;20075;-57
2021/09/27 23:37:21;;;;;;;2.97;1.50;;;19.50;75.80;;;;;;10500252;28;20024;-57
2021/09/27 23:42:22;;;;;;;3.08;1.33;;;19.50;75.60;;;;;;10500191;28;20060;-56
2021/09/27 23:47:23;;;;;;;4.68;2.08;;;19.50;75.60;;;;;;10499988;28;20060;-57
2021/09/27 23:52:24;;;;;;;4.15;1.73;;;19.50;75.70;;;;;;10500196;28;20481;-57
2021/09/27 23:57:24;;;;;;;3.83;1.50;;;19.50;75.80;;;;;;10492131;28;20129;-57
